CheckWX is a tool to help pilots better visualize weather data.  It is not intended as a substitute for an official pre-flight weather briefing.

16:19:13 UTC

PACD METAR
Cold Bay Airport
Cold Bay, Alaska, USA
Current

26 mins ago

PACD 281553Z AUTO 00000KT 10SM CLR 03/02 A3036 RMK AO2 SLP280 T00280022 TSNO
Observed
May-28 @ 15:53 UTC
Visibility
Flight Rules
VFR
Cloud Levels
  • Clear skies
Temperature
C / 37°F
Dewpoint
C / 36°F
Humidity
93%
Altimeter
30.36" Hg
Pressure
1028.12 hPa
Previous

1 hour ago

PACD 281453Z AUTO 28003KT 10SM CLR 00/M01 A3035 RMK AO2 SLP280 T00001011 50000 TSNO
Observed
May-28 @ 14:53 UTC
Wind
  • 280° at 3 KTS
Visibility
Flight Rules
VFR
Cloud Levels
  • Clear skies
Temperature
C / 32°F
Dewpoint
-1°C / 30°F
Humidity
93%
Altimeter
30.35" Hg
Pressure
1027.82 hPa
Previous

2 hours ago

PACD 281353Z AUTO 00000KT 10SM CLR M01/M02 A3035 RMK AO2 SLP280 T10061022 TSNO
Observed
May-28 @ 13:53 UTC
Visibility
Flight Rules
VFR
Cloud Levels
  • Clear skies
Temperature
-1°C / 30°F
Dewpoint
-2°C / 28°F
Humidity
93%
Altimeter
30.35" Hg
Pressure
1027.82 hPa